Time;durP1;ratioP1;P1;durP2;ratioP2;P2;SDS_P1;SDS_P2;PMS_P1;PMS_P2;Temp;Humidity;BMP_temperature;BMP_pressure;BME280_temperature;BME280_humidity;BME280_pressure;Samples;Min_cycle;Max_cycle;Signal;HPM_P1;HPM_P2
2024/01/21 00:01:31;;;;;;;;;;;-3273.60;82.00;;;;;;5044605;28;19933;-61
2024/01/21 00:04:07;;;;;;;;;;;-3273.60;82.10;;;;;;5055961;28;19963;-63
2024/01/21 00:06:47;;;;;;;;;;;-3273.70;82.20;;;;;;5053752;28;19932;-62
2024/01/21 00:09:21;;;;;;;;;;;-3273.70;82.10;;;;;;5042995;28;20949;-62
2024/01/21 00:11:47;;;;;;;;;;;-3273.60;82.30;;;;;;5056861;28;19935;-62
2024/01/21 00:14:21;;;;;;;;;;;-3273.60;82.30;;;;;;5060529;28;19936;-63
2024/01/21 00:16:47;;;;;;;;;;;-3273.60;82.40;;;;;;5051563;28;20298;-62
2024/01/21 00:19:22;;;;;;;;;;;-3273.60;82.50;;;;;;5050260;28;19932;-61
2024/01/21 00:21:56;;;;;;;;;;;-3273.40;82.50;;;;;;5052343;28;20019;-61
2024/01/21 00:24:29;;;;;;;;;;;-3273.50;82.70;;;;;;5050270;28;20086;-62
2024/01/21 00:26:55;;;;;;;;;;;-3273.50;82.70;;;;;;5055045;28;19936;-61
2024/01/21 00:29:29;;;;;;;;;;;-3273.60;82.80;;;;;;5044727;28;19933;-63
2024/01/21 00:32:02;;;;;;;;;;;-3273.50;82.60;;;;;;5052539;28;19925;-61
2024/01/21 00:34:36;;;;;;;;;;;-3273.50;82.40;;;;;;5047461;28;19932;-60
2024/01/21 00:37:10;;;;;;;;;;;-3273.60;82.50;;;;;;5053639;28;19964;-62
2024/01/21 00:39:43;;;;;;;;;;;-3273.50;82.60;;;;;;5056736;28;19924;-62
2024/01/21 00:42:09;;;;;;;;;;;-3273.60;82.70;;;;;;5056002;28;20383;-61
2024/01/21 00:44:43;;;;;;;;;;;-3273.70;82.50;;;;;;5057251;28;19924;-62
2024/01/21 00:47:16;;;;;;;;;;;-3273.70;82.30;;;;;;5057343;28;19929;-61
2024/01/21 00:49:50;;;;;;;;;;;-3273.70;82.30;;;;;;5055409;28;19929;-63
2024/01/21 00:52:24;;;;;;;;;;;-3273.70;82.50;;;;;;5056581;28;19934;-63
2024/01/21 00:54:57;;;;;;;;;;;-3273.70;82.60;;;;;;5055548;28;19935;-62
2024/01/21 00:57:30;;;;;;;;;;;-3273.70;82.80;;;;;;5058680;28;19930;-61
2024/01/21 01:00:04;;;;;;;;;;;-3273.70;82.80;;;;;;5054577;28;19933;-62
2024/01/21 01:02:38;;;;;;;;;;;-3273.80;82.60;;;;;;5056462;28;19960;-61
2024/01/21 01:05:12;;;;;;;;;;;-3273.70;82.60;;;;;;5055769;28;20011;-62
2024/01/21 01:07:46;;;;;;;;;;;-3273.70;82.60;;;;;;5052197;28;20448;-62
2024/01/21 01:10:19;;;;;;;;;;;-3273.70;82.70;;;;;;5052774;28;19936;-61
2024/01/21 01:12:52;;;;;;;;;;;-3273.70;82.80;;;;;;5053932;28;19931;-63
2024/01/21 01:15:25;;;;;;;;;;;-3273.70;82.70;;;;;;5057484;28;20003;-61
2024/01/21 01:17:58;;;;;;;;;;;-3273.80;82.80;;;;;;5057657;28;19929;-62
2024/01/21 01:20:32;;;;;;;;;;;-3273.80;82.60;;;;;;5058996;28;19931;-61
2024/01/21 01:23:06;;;;;;;;;;;-3273.80;82.50;;;;;;5058096;28;20015;-62
2024/01/21 01:25:39;;;;;;;;;;;-3273.80;82.60;;;;;;5057343;28;19928;-61
2024/01/21 01:28:12;;;;;;;;;;;-3273.80;82.70;;;;;;5059044;28;20003;-62
2024/01/21 01:30:45;;;;;;;;;;;-3273.80;82.60;;;;;;5055244;28;19939;-60
2024/01/21 01:33:18;;;;;;;;;;;-3273.80;82.60;;;;;;5058372;28;19929;-61
2024/01/21 01:35:52;;;;;;;;;;;-3273.90;82.40;;;;;;5057799;28;20457;-61
2024/01/21 01:38:26;;;;;;;;;;;-3273.70;82.00;;;;;;5059296;28;19963;-61
2024/01/21 01:40:59;;;;;;;;;;;-3273.60;81.60;;;;;;5056916;28;19939;-60
2024/01/21 01:43:32;;;;;;;;;;;-3273.30;81.30;;;;;;5057893;28;19978;-62
2024/01/21 01:46:05;;;;;;;;;;;-3273.30;81.40;;;;;;5054912;28;19929;-61
2024/01/21 01:48:39;;;;;;;;;;;-3273.30;81.00;;;;;;5054564;28;19950;-63
2024/01/21 01:51:14;;;;;;;;;;;-3273.20;80.90;;;;;;5057723;28;19932;-61
2024/01/21 01:53:48;;;;;;;;;;;-3273.20;81.30;;;;;;5058749;28;20027;-62
2024/01/21 01:56:22;;;;;;;;;;;-3273.30;81.30;;;;;;5057721;28;19932;-60
2024/01/21 01:58:50;;;;;;;;;;;-3273.40;81.20;;;;;;5052279;28;19924;-64
2024/01/21 02:01:23;;;;;;;;;;;-3273.50;81.40;;;;;;5054060;28;19924;-60
2024/01/21 02:03:57;;;;;;;;;;;-3273.50;81.50;;;;;;5057290;28;19968;-61
2024/01/21 02:06:25;;;;;;;;;;;-3273.60;81.70;;;;;;5052542;28;20424;-60
2024/01/21 02:08:59;;;;;;;;;;;-3273.60;81.70;;;;;;5053941;28;20379;-60
2024/01/21 02:11:25;;;;;;;;;;;-3273.50;82.00;;;;;;5054207;28;19991;-61
2024/01/21 02:13:59;;;;;;;;;;;-3273.60;82.10;;;;;;5055924;28;19931;-60
2024/01/21 02:16:32;;;;;;;;;;;-3273.60;82.10;;;;;;5056137;28;19928;-60
2024/01/21 02:19:13;;;;;;;;;;;-3273.50;82.10;;;;;;5055587;28;19925;-61
2024/01/21 02:21:48;;;;;;;;;;;-3273.30;82.20;;;;;;5058426;28;19928;-60
2024/01/21 02:24:28;;;;;;;;;;;-3273.40;82.40;;;;;;5055452;28;20015;-60
2024/01/21 02:27:02;;;;;;;;;;;-3273.30;82.10;;;;;;5054447;28;19924;-60
2024/01/21 02:29:35;;;;;;;;;;;-3273.20;82.40;;;;;;5058873;28;20298;-61
2024/01/21 02:32:08;;;;;;;;;;;-3273.20;82.30;;;;;;5052810;28;19933;-61
2024/01/21 02:34:41;;;;;;;;;;;-3273.30;82.20;;;;;;5054688;28;19929;-61
2024/01/21 02:37:14;;;;;;;;;;;-3273.40;82.10;;;;;;5054537;28;19933;-61
2024/01/21 02:39:48;;;;;;;;;;;-3273.50;82.00;;;;;;5057084;28;19963;-60
2024/01/21 02:42:22;;;;;;;;;;;-3273.50;81.90;;;;;;5053502;28;20016;-62
2024/01/21 02:44:55;;;;;;;;;;;-3273.50;82.30;;;;;;5058041;28;19929;-59
2024/01/21 02:47:29;;;;;;;;;;;-3273.60;82.20;;;;;;5036823;28;19933;-61
2024/01/21 02:50:02;;;;;;;;;;;-3273.60;82.10;;;;;;5032662;28;19925;-62
2024/01/21 02:52:35;;;;;;;;;;;-3273.60;82.00;;;;;;5033649;28;19925;-61
2024/01/21 02:55:09;;;;;;;;;;;-3273.60;82.00;;;;;;5036067;28;20395;-60
2024/01/21 02:57:43;;;;;;;;;;;-3273.60;81.90;;;;;;5034782;28;19975;-59
2024/01/21 03:00:16;;;;;;;;;;;-3273.60;81.90;;;;;;5032945;28;19934;-61
2024/01/21 03:02:52;;;;;;;;;;;-3273.60;81.80;;;;;;5054185;28;20015;-61
2024/01/21 03:05:25;;;;;;;;;;;-3273.70;81.80;;;;;;5052269;28;19968;-59
2024/01/21 03:07:58;;;;;;;;;;;-3273.70;81.90;;;;;;5057661;28;19928;-60
2024/01/21 03:10:32;;;;;;;;;;;-3273.70;81.80;;;;;;5055588;28;19936;-61
2024/01/21 03:13:07;;;;;;;;;;;-3273.60;81.90;;;;;;5054538;28;20296;-60
2024/01/21 03:15:40;;;;;;;;;;;-3273.70;82.00;;;;;;5057902;28;20375;-59
2024/01/21 03:18:13;;;;;;;;;;;-3273.70;81.90;;;;;;5052940;28;19928;-61
2024/01/21 03:20:46;;;;;;;;;;;-3273.70;81.80;;;;;;5054511;28;19933;-61
2024/01/21 03:23:20;;;;;;;;;;;-3273.70;81.80;;;;;;5055810;28;20398;-59
2024/01/21 03:25:54;;;;;;;;;;;-3273.70;81.80;;;;;;5054179;28;19972;-59
2024/01/21 03:28:28;;;;;;;;;;;-3273.60;81.80;;;;;;5054404;28;20387;-59
2024/01/21 03:31:01;;;;;;;;;;;-3273.70;82.00;;;;;;5054026;28;20057;-63
2024/01/21 03:33:34;;;;;;;;;;;-3273.70;81.70;;;;;;5052655;28;19928;-59
2024/01/21 03:36:07;;;;;;;;;;;-3273.60;81.70;;;;;;5052609;28;19928;-60
2024/01/21 03:38:40;;;;;;;;;;;-3273.60;81.70;;;;;;5055770;28;19974;-61
2024/01/21 03:41:14;;;;;;;;;;;-3273.50;81.90;;;;;;5044302;28;19929;-61
2024/01/21 03:43:48;;;;;;;;;;;-3273.60;82.00;;;;;;5046904;28;19940;-61
2024/01/21 03:46:21;;;;;;;;;;;-3273.60;82.00;;;;;;5050592;28;19947;-60
2024/01/21 03:48:54;;;;;;;;;;;-3273.60;82.00;;;;;;5051572;28;19929;-60
2024/01/21 03:51:27;;;;;;;;;;;-3273.70;81.90;;;;;;5052956;28;20019;-61
2024/01/21 03:54:00;;;;;;;;;;;-3273.70;81.80;;;;;;5054387;28;19925;-60
2024/01/21 03:56:34;;;;;;;;;;;-3273.70;81.90;;;;;;5054324;28;19932;-59
2024/01/21 03:59:08;;;;;;;;;;;-3273.70;81.80;;;;;;5050880;28;19932;-60
2024/01/21 04:01:44;;;;;;;;;;;-3273.70;81.60;;;;;;5056364;28;19931;-60
2024/01/21 04:04:17;;;;;;;;;;;-3273.70;81.80;;;;;;5053393;28;19963;-60
2024/01/21 04:06:50;;;;;;;;;;;-3273.70;81.80;;;;;;5055466;28;19931;-60
2024/01/21 04:09:23;;;;;;;;;;;-3273.70;81.70;;;;;;5057353;28;20015;-60
2024/01/21 04:11:58;;;;;;;;;;;-3273.70;81.80;;;;;;5055539;28;19925;-63
2024/01/21 04:14:32;;;;;;;;;;;-3273.80;81.80;;;;;;5059830;28;22315;-60
2024/01/21 04:17:05;;;;;;;;;;;-3273.70;81.80;;;;;;5057735;28;19929;-59
2024/01/21 04:19:38;;;;;;;;;;;-3273.80;81.60;;;;;;5059981;28;19932;-60
2024/01/21 04:22:11;;;;;;;;;;;-3273.70;81.70;;;;;;5057661;28;19939;-61
2024/01/21 04:24:44;;;;;;;;;;;-3273.70;81.80;;;;;;5057125;28;19925;-60
2024/01/21 04:27:18;;;;;;;;;;;-3273.80;81.80;;;;;;5061425;28;19932;-59
2024/01/21 04:29:52;;;;;;;;;;;-3273.70;81.80;;;;;;5058549;28;19932;-61
2024/01/21 04:32:25;;;;;;;;;;;-3273.80;81.80;;;;;;5060248;28;19928;-61
2024/01/21 04:34:58;;;;;;;;;;;-3273.90;81.70;;;;;;5059815;28;19929;-61
2024/01/21 04:37:25;;;;;;;;;;;-3273.80;81.60;;;;;;5058078;28;19929;-60
2024/01/21 04:39:58;;;;;;;;;;;-3273.60;81.40;;;;;;5061030;28;19932;-61
2024/01/21 04:42:32;;;;;;;;;;;-3273.60;81.50;;;;;;5059938;28;19967;-61
2024/01/21 04:45:07;;;;;;;;;;;-3273.60;81.50;;;;;;5058093;28;20002;-60
2024/01/21 04:47:41;;;;;;;;;;;-3273.50;81.10;;;;;;5059025;28;19929;-61
2024/01/21 04:50:14;;;;;;;;;;;-3273.40;81.10;;;;;;5060527;28;20399;-61
2024/01/21 04:52:47;;;;;;;;;;;-3273.40;81.10;;;;;;5060402;28;19925;-60
2024/01/21 04:55:20;;;;;;;;;;;-3273.20;81.00;;;;;;5056517;28;19968;-59
2024/01/21 04:57:54;;;;;;;;;;;-3273.20;81.20;;;;;;5061051;28;19925;-78
2024/01/21 05:00:28;;;;;;;;;;;-3273.30;81.20;;;;;;5060111;28;20401;-77
2024/01/21 05:03:01;;;;;;;;;;;-3273.30;81.00;;;;;;5057656;28;20768;-75
2024/01/21 05:05:34;;;;;;;;;;;-3273.30;81.20;;;;;;5060275;28;20043;-79
2024/01/21 05:08:07;;;;;;;;;;;-3273.40;80.80;;;;;;5058697;28;20047;-79
2024/01/21 05:10:40;;;;;;;;;;;-3273.30;80.90;;;;;;5060898;28;19924;-79
2024/01/21 05:13:14;;;;;;;;;;;-3273.30;81.00;;;;;;5055768;28;19970;-77
2024/01/21 05:15:48;;;;;;;;;;;-3273.20;80.90;;;;;;5061279;28;19933;-78
2024/01/21 05:18:21;;;;;;;;;;;-3273.20;80.50;;;;;;5059131;28;19968;-77
2024/01/21 05:20:54;;;;;;;;;;;-3273.10;80.90;;;;;;5052908;28;19925;-79
2024/01/21 05:23:27;;;;;;;;;;;-3273.20;80.90;;;;;;5040798;28;19935;-77
2024/01/21 05:26:01;;;;;;;;;;;-3273.10;80.60;;;;;;5047105;28;19932;-73
2024/01/21 05:28:35;;;;;;;;;;;-3273.10;80.90;;;;;;5057938;28;19925;-79
2024/01/21 05:31:09;;;;;;;;;;;-3273.20;80.90;;;;;;5058029;28;19932;-78
2024/01/21 05:33:42;;;;;;;;;;;-3273.20;81.30;;;;;;5062682;28;19951;-77
2024/01/21 05:36:15;;;;;;;;;;;-3273.20;81.30;;;;;;5058941;28;19960;-77
2024/01/21 05:38:48;;;;;;;;;;;-3273.30;81.40;;;;;;5060078;28;19956;-78
2024/01/21 05:41:21;;;;;;;;;;;-3273.40;81.30;;;;;;5058387;28;20464;-80
2024/01/21 05:43:55;;;;;;;;;;;-3273.50;81.20;;;;;;5060810;28;20018;-79
2024/01/21 05:46:29;;;;;;;;;;;-3273.50;81.30;;;;;;5059321;28;19929;-78
2024/01/21 05:49:02;;;;;;;;;;;-3273.60;81.30;;;;;;5057685;28;19928;-79
2024/01/21 05:51:35;;;;;;;;;;;-3273.60;81.20;;;;;;5056619;28;20383;-79
2024/01/21 05:54:08;;;;;;;;;;;-3273.60;81.20;;;;;;5051974;28;20015;-80
2024/01/21 05:56:41;;;;;;;;;;;-3273.40;81.30;;;;;;5060513;28;19936;-80
2024/01/21 05:59:22;;;;;;;;;;;-3273.40;81.70;;;;;;5061208;28;19933;-77
2024/01/21 06:01:55;;;;;;;;;;;-3273.30;81.80;;;;;;5049169;28;20016;-78
2024/01/21 06:04:28;;;;;;;;;;;-3273.30;82.00;;;;;;5058135;28;19924;-80
2024/01/21 06:07:01;;;;;;;;;;;-3273.30;81.70;;;;;;5059383;28;20390;-76
2024/01/21 06:09:27;;;;;;;;;;;-3273.20;81.40;;;;;;5058145;28;19925;-62
2024/01/21 06:12:01;;;;;;;;;;;-3273.10;82.00;;;;;;5057340;28;19925;-65
2024/01/21 06:14:35;;;;;;;;;;;-3273.10;81.80;;;;;;5058439;28;19929;-60
2024/01/21 06:17:09;;;;;;;;;;;-3273.20;82.10;;;;;;5058299;28;19925;-61
2024/01/21 06:19:42;;;;;;;;;;;-3273.10;81.80;;;;;;5055478;28;19929;-61
2024/01/21 06:22:15;;;;;;;;;;;-3273.10;81.90;;;;;;5055499;28;19960;-61
2024/01/21 06:24:48;;;;;;;;;;;-3273.10;82.00;;;;;;5057981;28;19931;-63
2024/01/21 06:27:21;;;;;;;;;;;-3273.20;82.00;;;;;;5057833;28;19954;-61
2024/01/21 06:29:55;;;;;;;;;;;-3273.30;81.90;;;;;;5056261;28;19928;-60
2024/01/21 06:32:29;;;;;;;;;;;-3273.30;81.90;;;;;;5053657;28;20015;-62
2024/01/21 06:35:02;;;;;;;;;;;-3273.20;81.80;;;;;;5057281;28;19929;-61
2024/01/21 06:37:36;;;;;;;;;;;-3273.20;82.20;;;;;;5057103;28;20384;-63
2024/01/21 06:40:09;;;;;;;;;;;-3273.20;82.10;;;;;;5059053;28;19925;-61
2024/01/21 06:42:43;;;;;;;;;;;-3273.20;82.20;;;;;;5055751;28;19964;-61
2024/01/21 06:45:17;;;;;;;;;;;-3273.20;82.20;;;;;;5057567;28;19924;-63
2024/01/21 06:47:51;;;;;;;;;;;-3273.10;82.10;;;;;;5055877;28;19925;-61
2024/01/21 06:50:24;;;;;;;;;;;-3273.10;82.50;;;;;;5057934;28;19925;-62
2024/01/21 06:52:51;;;;;;;;;;;-3273.10;82.50;;;;;;5057825;28;19979;-61
2024/01/21 06:55:24;;;;;;;;;;;-3273.00;82.60;;;;;;5055743;28;19924;-63
2024/01/21 06:57:58;;;;;;;;;;;-3273.20;82.50;;;;;;5056210;28;19929;-60
2024/01/21 07:00:32;;;;;;;;;;;-3273.20;82.30;;;;;;5057082;28;19924;-62
2024/01/21 07:02:59;;;;;;;;;;;-3273.30;82.30;;;;;;5056150;28;20018;-61
2024/01/21 07:05:32;;;;;;;;;;;-3273.30;82.30;;;;;;5054353;28;20017;-64
2024/01/21 07:08:05;;;;;;;;;;;-3273.30;82.40;;;;;;5056307;28;19928;-62
2024/01/21 07:10:39;;;;;;;;;;;-3273.20;82.40;;;;;;5057798;28;19932;-63
2024/01/21 07:13:13;;;;;;;;;;;-3273.30;82.50;;;;;;5057716;28;19925;-63
2024/01/21 07:15:47;;;;;;;;;;;-3273.40;82.40;;;;;;5056343;28;19924;-61
2024/01/21 07:18:21;;;;;;;;;;;-3273.30;82.30;;;;;;5055578;28;20015;-65
2024/01/21 07:20:54;;;;;;;;;;;-3273.50;82.50;;;;;;5050917;28;19943;-65
2024/01/21 07:23:27;;;;;;;;;;;-3273.50;82.30;;;;;;5055527;28;20406;-64
2024/01/21 07:26:00;;;;;;;;;;;-3273.50;82.10;;;;;;5057212;28;19929;-62
2024/01/21 07:28:33;;;;;;;;;;;-3273.50;81.90;;;;;;5055929;28;19924;-63
2024/01/21 07:31:01;;;;;;;;;;;-3273.60;82.20;;;;;;5057017;28;19962;-63
2024/01/21 07:33:34;;;;;;;;;;;-3273.60;81.90;;;;;;5056951;28;19935;-63
2024/01/21 07:36:03;;;;;;;;;;;-3273.60;82.20;;;;;;5058031;28;19933;-62
2024/01/21 07:38:36;;;;;;;;;;;-3273.60;82.10;;;;;;5057117;28;19932;-63
2024/01/21 07:41:09;;;;;;;;;;;-3273.50;82.20;;;;;;5056338;28;19928;-62
2024/01/21 07:43:42;;;;;;;;;;;-3273.60;82.10;;;;;;5056435;28;19939;-63
2024/01/21 07:46:16;;;;;;;;;;;-3273.60;82.10;;;;;;5059049;28;19928;-63
2024/01/21 07:48:50;;;;;;;;;;;-3273.70;82.00;;;;;;5058147;28;19950;-61
2024/01/21 07:51:23;;;;;;;;;;;-3273.80;81.90;;;;;;5060707;28;19933;-61
2024/01/21 07:53:56;;;;;;;;;;;-3273.80;81.70;;;;;;5058311;28;20830;-62
2024/01/21 07:56:29;;;;;;;;;;;-3273.90;81.80;;;;;;5051057;28;20828;-62
2024/01/21 07:59:02;;;;;;;;;;;-3273.90;81.70;;;;;;5059391;28;20007;-64
2024/01/21 08:01:36;;;;;;;;;;;-3274.00;81.60;;;;;;5062724;28;19924;-62
2024/01/21 08:04:10;;;;;;;;;;;-3274.00;81.50;;;;;;5059375;28;19924;-62
2024/01/21 08:06:43;;;;;;;;;;;-3274.00;81.40;;;;;;5061871;28;19939;-62
2024/01/21 08:09:16;;;;;;;;;;;-3274.00;81.50;;;;;;5061708;28;19974;-62
2024/01/21 08:11:50;;;;;;;;;;;-3274.00;81.50;;;;;;5059798;28;19925;-63
2024/01/21 08:14:23;;;;;;;;;;;-3274.00;81.50;;;;;;5057406;28;19936;-64
2024/01/21 08:16:58;;;;;;;;;;;-3274.10;81.50;;;;;;5060518;28;19982;-63
2024/01/21 08:19:36;;;;;;;;;;;-3274.10;81.30;;;;;;5040730;28;19925;-63
2024/01/21 08:22:10;;;;;;;;;;;-3274.10;81.40;;;;;;5040242;28;19929;-63
2024/01/21 08:24:43;;;;;;;;;;;-3274.10;81.20;;;;;;5035549;28;20027;-62
2024/01/21 08:27:09;;;;;;;;;;;-3274.10;81.50;;;;;;5040733;28;19936;-64
2024/01/21 08:29:43;;;;;;;;;;;-3274.10;81.40;;;;;;5040438;28;19924;-62
2024/01/21 08:32:17;;;;;;;;;;;-3274.10;81.40;;;;;;5037451;28;20292;-62
2024/01/21 08:34:51;;;;;;;;;;;-3274.20;81.30;;;;;;5040552;28;19929;-61
2024/01/21 08:37:24;;;;;;;;;;;-3274.20;81.20;;;;;;5041195;28;19935;-63
2024/01/21 08:39:57;;;;;;;;;;;-3274.20;81.10;;;;;;5037607;28;19935;-62
2024/01/21 08:42:30;;;;;;;;;;;-3274.40;81.00;;;;;;5039358;28;20028;-63
2024/01/21 08:45:04;;;;;;;;;;;-3274.40;81.00;;;;;;5040828;28;19951;-63
2024/01/21 08:47:38;;;;;;;;;;;-3274.50;80.90;;;;;;5040097;28;20335;-63
2024/01/21 08:50:06;;;;;;;;;;;-3274.40;81.00;;;;;;5040500;28;19937;-62
2024/01/21 08:52:39;;;;;;;;;;;-3274.50;81.00;;;;;;5038930;28;19955;-63
2024/01/21 08:55:12;;;;;;;;;;;-3274.50;81.10;;;;;;5037594;28;19929;-61
2024/01/21 08:57:45;;;;;;;;;;;-3274.50;81.00;;;;;;5037265;28;20023;-61
2024/01/21 09:00:19;;;;;;;;;;;-3274.50;81.00;;;;;;5035951;28;19929;-61
2024/01/21 09:02:53;;;;;;;;;;;-3274.30;81.10;;;;;;5040092;28;20024;-60
2024/01/21 09:05:28;;;;;;;;;;;-3274.20;81.30;;;;;;5040176;28;19984;-62
2024/01/21 09:08:02;;;;;;;;;;;-3274.10;81.50;;;;;;5040575;28;19932;-62
2024/01/21 09:10:35;;;;;;;;;;;-3274.10;81.40;;;;;;5040084;28;20351;-63
2024/01/21 09:13:08;;;;;;;;;;;-3274.10;81.50;;;;;;5039796;28;20020;-62
2024/01/21 09:15:41;;;;;;;;;;;-3274.00;81.40;;;;;;5038426;28;19925;-62
2024/01/21 09:18:16;;;;;;;;;;;-3274.10;81.60;;;;;;5055957;28;20338;-61
2024/01/21 09:20:50;;;;;;;;;;;-3274.10;81.70;;;;;;5040631;28;19961;-62
2024/01/21 09:23:23;;;;;;;;;;;-3274.30;81.60;;;;;;5039128;28;20367;-62
2024/01/21 09:25:49;;;;;;;;;;;-3274.20;81.50;;;;;;5037039;28;19932;-67
2024/01/21 09:28:23;;;;;;;;;;;-3274.30;81.40;;;;;;5038641;28;19997;-62
2024/01/21 09:30:57;;;;;;;;;;;-3274.30;81.30;;;;;;5040594;28;19955;-61
2024/01/21 09:33:31;;;;;;;;;;;-3274.30;81.50;;;;;;5038895;28;19929;-62
2024/01/21 09:35:58;;;;;;;;;;;-3274.30;81.40;;;;;;5036519;28;19925;-63
2024/01/21 09:38:31;;;;;;;;;;;-3274.30;81.60;;;;;;5032583;28;22360;-60
2024/01/21 09:41:07;;;;;;;;;;;-3274.40;81.50;;;;;;5036842;28;19929;-60
2024/01/21 09:43:41;;;;;;;;;;;-3274.40;81.30;;;;;;5038565;28;19932;-61
2024/01/21 09:46:11;;;;;;;;;;;-3274.50;81.50;;;;;;5036613;28;19935;-61
2024/01/21 09:48:46;;;;;;;;;;;-3274.60;81.30;;;;;;5037434;28;19924;-60
2024/01/21 09:51:20;;;;;;;;;;;-3274.60;81.20;;;;;;5036235;28;20322;-60
2024/01/21 09:53:54;;;;;;;;;;;-3274.60;81.30;;;;;;5034182;28;19928;-61
2024/01/21 09:56:27;;;;;;;;;;;-3274.70;81.40;;;;;;5034377;28;19936;-60
2024/01/21 09:59:01;;;;;;;;;;;-3274.70;81.20;;;;;;5037420;28;19991;-61
2024/01/21 10:01:28;;;;;;;;;;;-3274.80;81.20;;;;;;5058916;28;19932;-60
2024/01/21 10:04:02;;;;;;;;;;;-3274.90;81.10;;;;;;5056358;28;19932;-63
2024/01/21 10:06:36;;;;;;;;;;;-3274.90;81.00;;;;;;5057666;28;20531;-60
2024/01/21 10:09:12;;;;;;;;;;;-3275.00;80.90;;;;;;5054534;28;19977;-60
2024/01/21 10:11:49;;;;;;;;;;;-3275.00;80.90;;;;;;5056464;28;19925;-60
2024/01/21 10:14:22;;;;;;;;;;;-3275.10;81.10;;;;;;5054347;28;19932;-61
2024/01/21 10:16:56;;;;;;;;;;;-3275.10;81.10;;;;;;5056549;28;20252;-60
2024/01/21 10:19:31;;;;;;;;;;;-3275.10;81.00;;;;;;5055627;28;19928;-61
2024/01/21 10:22:08;;;;;;;;;;;-3275.10;81.40;;;;;;5056875;28;19925;-61
2024/01/21 10:24:41;;;;;;;;;;;-3275.00;81.30;;;;;;5056927;28;19928;-60
2024/01/21 10:27:15;;;;;;;;;;;-3275.10;81.50;;;;;;5049157;28;19929;-60
2024/01/21 10:29:49;;;;;;;;;;;-3275.10;81.50;;;;;;5055536;28;19924;-60
2024/01/21 10:32:22;;;;;;;;;;;-3275.20;81.30;;;;;;5068134;28;19980;-61
2024/01/21 10:34:57;;;;;;;;;;;-3275.30;81.20;;;;;;5056827;28;19981;-61
2024/01/21 10:37:31;;;;;;;;;;;-3275.40;81.20;;;;;;5056557;28;19928;-61
2024/01/21 10:40:07;;;;;;;;;;;-3275.50;81.10;;;;;;5045460;28;20327;-59
2024/01/21 10:42:40;;;;;;;;;;;-3275.50;81.20;;;;;;5056385;28;19936;-60
2024/01/21 10:45:07;;;;;;;;;;;-3275.60;81.00;;;;;;5055136;28;19924;-59
2024/01/21 10:47:43;;;;;;;;;;;-3275.70;81.00;;;;;;5056739;28;19966;-78
2024/01/21 10:50:17;;;;;;;;;;;-3275.70;81.20;;;;;;5055285;28;19928;-77
2024/01/21 10:52:51;;;;;;;;;;;-3275.70;81.10;;;;;;5057677;28;19925;-76
2024/01/21 10:55:18;;;;;;;;;;;-3275.70;81.10;;;;;;5054294;28;19933;-77
2024/01/21 10:57:52;;;;;;;;;;;-3275.70;81.30;;;;;;5058198;28;20276;-77
2024/01/21 11:00:25;;;;;;;;;;;-3275.80;81.30;;;;;;5054800;28;19929;-78
2024/01/21 11:03:10;;;;;;;;;;;-3275.70;81.20;;;;;;5058378;28;20027;-77
2024/01/21 11:05:46;;;;;;;;;;;-3275.80;81.10;;;;;;5058555;28;19925;-77
2024/01/21 11:08:22;;;;;;;;;;;-3275.80;81.20;;;;;;5051218;28;19933;-78
2024/01/21 11:10:52;;;;;;;;;;;-3275.80;81.20;;;;;;5042296;28;19933;-77
2024/01/21 11:13:41;;;;;;;;;;;-3275.90;81.20;;;;;;5056950;28;19940;-77
2024/01/21 11:16:34;;;;;;;;;;;-3275.90;81.40;;;;;;5055431;28;20367;-79
2024/01/21 11:19:09;;;;;;;;;;;-3276.00;81.50;;;;;;5055595;28;19929;-75
2024/01/21 11:21:44;;;;;;;;;;;-3276.00;81.80;;;;;;5056631;28;19986;-78
2024/01/21 11:24:18;;;;;;;;;;;-3276.00;81.90;;;;;;5053463;28;20034;-78
2024/01/21 11:26:51;;;;;;;;;;;-3276.10;82.00;;;;;;5051158;28;20011;-75
2024/01/21 11:29:26;;;;;;;;;;;-3276.10;82.00;;;;;;5054803;28;19951;-75
2024/01/21 11:32:16;;;;;;;;;;;-3276.10;81.90;;;;;;5055404;28;21317;-76
2024/01/21 11:34:56;;;;;;;;;;;-3276.10;81.90;;;;;;5055519;28;19979;-76
2024/01/21 11:37:30;;;;;;;;;;;-3276.10;81.50;;;;;;5055020;28;19931;-79
2024/01/21 11:40:06;;;;;;;;;;;-3276.20;81.60;;;;;;5054323;28;19928;-79
2024/01/21 11:42:39;;;;;;;;;;;-3276.20;81.70;;;;;;5053720;28;20007;-77
2024/01/21 11:45:12;;;;;;;;;;;-3276.30;81.70;;;;;;5054958;28;20267;-78
2024/01/21 11:47:52;;;;;;;;;;;-3276.30;81.70;;;;;;5045075;28;19924;-77
2024/01/21 11:50:26;;;;;;;;;;;-3276.30;82.10;;;;;;5056240;28;19976;-79
2024/01/21 11:53:03;;;;;;;;;;;-3276.30;82.10;;;;;;5055350;28;20005;-79
2024/01/21 11:55:36;;;;;;;;;;;-3276.40;82.00;;;;;;5055243;28;20334;-76
2024/01/21 11:58:09;;;;;;;;;;;-3276.40;81.70;;;;;;5057020;28;20007;-78
2024/01/21 12:00:36;;;;;;;;;;;-3276.40;81.80;;;;;;5052309;28;19953;-76
2024/01/21 12:03:09;;;;;;;;;;;-3276.40;81.80;;;;;;5055987;28;19924;-79
2024/01/21 12:05:42;;;;;;;;;;;-3276.40;81.80;;;;;;5052825;28;19929;-78
2024/01/21 12:08:17;;;;;;;;;;;-3276.40;82.00;;;;;;5053174;28;19932;-61
2024/01/21 12:10:50;;;;;;;;;;;-3276.40;81.90;;;;;;5056900;28;19928;-61
2024/01/21 12:13:29;;;;;;;;;;;-3276.40;81.90;;;;;;5054718;28;19929;-61
2024/01/21 12:16:03;;;;;;;;;;;-3276.40;82.10;;;;;;5055265;28;19970;-60
2024/01/21 12:18:38;;;;;;;;;;;-3276.50;82.00;;;;;;5053413;28;19932;-64
2024/01/21 12:21:12;;;;;;;;;;;-3276.60;82.00;;;;;;5052573;28;19924;-61
2024/01/21 12:23:48;;;;;;;;;;;-3276.50;81.90;;;;;;5054800;28;19978;-62
2024/01/21 12:26:23;;;;;;;;;;;-3276.50;81.80;;;;;;5053741;28;19929;-62
2024/01/21 12:28:56;;;;;;;;;;;-3276.60;81.80;;;;;;5051598;28;20341;-62
2024/01/21 12:31:30;;;;;;;;;;;-3276.60;81.90;;;;;;5052281;28;20315;-64
2024/01/21 12:34:05;;;;;;;;;;;-3276.60;81.90;;;;;;5056276;28;19928;-63
2024/01/21 12:36:39;;;;;;;;;;;-3276.60;82.00;;;;;;5058626;28;20455;-63
2024/01/21 12:39:14;;;;;;;;;;;-3276.60;81.90;;;;;;5060493;28;20342;-61
2024/01/21 12:41:40;;;;;;;;;;;-3276.70;81.70;;;;;;5057168;28;19939;-63
2024/01/21 12:44:14;;;;;;;;;;;-3276.60;81.70;;;;;;5058768;28;20023;-62
2024/01/21 12:46:47;;;;;;;;;;;-3276.60;82.00;;;;;;5054799;28;19925;-62
2024/01/21 12:49:21;;;;;;;;;;;-3276.60;81.90;;;;;;5059143;28;20364;-63
2024/01/21 12:51:54;;;;;;;;;;;-3276.60;82.00;;;;;;5057479;28;19932;-63
2024/01/21 12:54:28;;;;;;;;;;;-3276.70;81.80;;;;;;5055178;28;19946;-61
2024/01/21 12:57:03;;;;;;;;;;;-3276.70;81.80;;;;;;5057222;28;19928;-63
2024/01/21 12:59:36;;;;;;;;;;;-3276.70;81.60;;;;;;5054119;28;20371;-63
2024/01/21 13:02:09;;;;;;;;;;;-3276.70;81.80;;;;;;5058343;28;19925;-63
2024/01/21 13:04:42;;;;;;;;;;;0.00;81.70;;;;;;5054089;28;19929;-62
2024/01/21 13:07:15;;;;;;;;;;;0.00;81.60;;;;;;5050767;28;19932;-63
2024/01/21 13:09:49;;;;;;;;;;;0.00;81.80;;;;;;5051448;28;19932;-63
2024/01/21 13:12:23;;;;;;;;;;;0.00;81.90;;;;;;5051967;28;20300;-62
2024/01/21 13:14:56;;;;;;;;;;;0.00;82.00;;;;;;5055526;28;20295;-63
2024/01/21 13:17:29;;;;;;;;;;;0.00;81.90;;;;;;5053807;28;19976;-64
2024/01/21 13:20:02;;;;;;;;;;;0.00;81.90;;;;;;5060156;28;19928;-62
2024/01/21 13:22:36;;;;;;;;;;;0.00;81.90;;;;;;5057025;28;19925;-62
2024/01/21 13:25:10;;;;;;;;;;;0.00;82.00;;;;;;5057810;28;19968;-63
2024/01/21 13:27:45;;;;;;;;;;;0.00;82.00;;;;;;5057014;28;19936;-61
2024/01/21 13:33:20;;;;;;;;;;;0.00;82.20;;;;;;5024915;28;19929;-61
2024/01/21 13:35:53;;;;;;;;;;;0.10;82.20;;;;;;5056491;28;19964;-61
2024/01/21 13:38:29;;;;;;;;;;;0.10;82.00;;;;;;5056544;28;19933;-61
2024/01/21 13:40:58;;;;;;;;;;;0.10;82.00;;;;;;5056079;28;19925;-61
2024/01/21 13:43:33;;;;;;;;;;;0.20;82.00;;;;;;5053397;28;20298;-62
2024/01/21 13:46:08;;;;;;;;;;;0.10;82.10;;;;;;5053391;28;19936;-62
2024/01/21 13:48:41;;;;;;;;;;;0.20;82.10;;;;;;5055316;28;19940;-61
2024/01/21 13:51:14;;;;;;;;;;;0.20;82.20;;;;;;5057074;28;19932;-61
2024/01/21 13:53:47;;;;;;;;;;;0.20;82.00;;;;;;5056288;28;20375;-61
2024/01/21 13:56:21;;;;;;;;;;;0.20;82.20;;;;;;5058263;28;19929;-62
2024/01/21 13:58:55;;;;;;;;;;;0.30;82.20;;;;;;5056117;28;19956;-62
2024/01/21 14:01:28;;;;;;;;;;;0.30;82.30;;;;;;5055799;28;19925;-61
2024/01/21 14:04:02;;;;;;;;;;;0.30;82.30;;;;;;5056224;28;20291;-62
2024/01/21 14:06:35;;;;;;;;;;;0.30;82.40;;;;;;5058939;28;19964;-62
2024/01/21 14:09:09;;;;;;;;;;;0.30;82.30;;;;;;5052727;28;20026;-63
2024/01/21 14:11:45;;;;;;;;;;;0.40;82.40;;;;;;5046580;28;19933;-62
2024/01/21 14:14:18;;;;;;;;;;;0.40;82.50;;;;;;5053602;28;20390;-60
2024/01/21 14:16:51;;;;;;;;;;;0.40;82.50;;;;;;5052366;28;20011;-61
2024/01/21 14:19:24;;;;;;;;;;;0.40;82.40;;;;;;5055814;28;19932;-61
2024/01/21 14:21:57;;;;;;;;;;;0.40;82.50;;;;;;5051748;28;20006;-61